Rosamond, CA

2:05 AM PDT on October 01, 2016 (GMT -0700)
Rural Rosamond | | Change Station

Elev 2411 ft 34.83 °N, 118.27 °W | Updated 6 seconds ago

Clear
Clear
66.6 °F
Feels Like 66.6 °F
N
14.5
Wind Variable Wind from WSW
Gusts 19.9 mph

Today
High -- | Low -- °F
--% Chance of Precip.
Yesterday
High -- | Low -- °F
Precip. -- in
Pressure 29.99 in
Visibility 10.0 miles
Clouds Clear
Dew Point 40 °F
Humidity 38%
Rainfall 0.00 in
Snow Depth Not available.
6:48 AM 6:36 PM
New Moon, 0% visible
METAR KWJF 010856Z 26010KT 10SM CLR 19/04 A3005 RMK AO2 SLP155 T01940044 51003
Pressure 29.99 in
Visibility 10.0 miles
Clouds Clear
Dew Point 40 °F
Humidity 38%
Rainfall 0.00 in
Snow Depth Not available.
6:48 AM 6:36 PM
New Moon, 0% visible
METAR KWJF 010856Z 26010KT 10SM CLR 19/04 A3005 RMK AO2 SLP155 T01940044 51003

10-Day Weather Forecast

Almanac

Astronomy

Oct. 01, 2016 Rise Set
Actual Time
Civil Twilight
Nautical Twilight
Astronomical Twilight
Moon
Length of Visible Light
Length of Day
Tomorrow will be .
, % of the Moon is Illuminated

Today's Extremes

State Highs State Lows

Community

WunderPhotos

Upload Photos

1,942,898 photos uploaded!

WunderBlog® & News

Nearby

Air Quality

  Air Quality AQ Index Pollutant
Not available.

Snow Depth

Station Depth Elevation

Earthquake Activity

City Distance Mag. Time & Date
Minimum magnitude displayed is 2.5.

Coastal Water Temperatures

Place Temperature

Stations

Nearby Weather Stations

Station Location Temp. Windchill Dew Point Humidity Wind Precip. Elev Updated Type
                   

Watches & Warnings

There are currently no watches in effect.